ROMMA est une association bénévole à but non lucratif. Votre soutien est indispensable : ADHERER à ROMMA ou FAIRE un DON

Lyon - (69, Rhône)

Plaine lyonnaise (169 m)   Longitude: 04° 49' 55" E   Latitude: 45° 43' 50" N Station partenaire n°124
 

Détail journalier du     <<     >>

Température Precipitation Humidité Pression Vent Dir Rafale Dir. rafale Ensol.
Heure (°C) (mm) (%) (hPa) (km/h) (km/h) (min)
01:00 18.2066101810N31N0
02:00 17.8070101712N29N0
03:00 17.6070101714N32N0
04:00 17.5068101711N29N0
05:00 17.7067101710N27N0
06:00 16.607310174N14N0
07:00 17.907310176N23N0
08:00 18.007310168N31N0
09:00 18.8072101611N29N20
10:00 19.9072101614N37N40
11:00 20.6071101616SE40SO50
12:00 20.6070101717N45N40
13:00 21.4068101715S37SO10
14:00 20.1073101715S35SO0
15:00 20.7073101614S34S0
16:00 20.8072101616S43SE20
17:00 20.7072101616SE47SE0
18:00 20.4074101616SE35SO0
19:00 20.1074101616N45SE0
20:00 19.8076101616N42N0
21:00 19.8076101613N43N0
22:00 19.6076101613N35N0
23:00 19.6075101613N32N0
minuit 19.7075101615N34N0

Graphique du 12-10-2019

 

Serveur OMMA